»·PEaware :: N117SB KPSP-KONT

N117SB :: KPSP-KONT

FLIGHT INFORMATION

Flight Status: Arrived
Operator: Privately registered:
United States
More flights under this callsign
Pilot: Dean S. (16265)
Aircraft: DIAMOND DA-42 TWINSTAR
(DA42)
More flights by this aircraft type
Origin: KPSP Palm Springs Intl
United States
Destination: KONT Ontario Intl
United States
More flights between these airports :: More routes between these airports
Route: +DEWAY PETIS
File this flight plan on PilotEdge
Remarks:
Altitude:
(Current/Filed)
6,500ft
Speed:
(Current/Filed)
172kts
Departed: 10-Jan-18 11:24 AM
Arrived: 10-Jan-18 12:03 PM
Distance/Time
Traveled:
56nm/0:38
Distance/Time
To Go:
Arrived

Flight Plot

Page will automatically refresh every two minutes.


Map Options




Map Legend


Flown Route
Filed Route
Departure Airport
Arrival Airport
Navaid (VOR, NDB)
Fix

Horizontal Profiles

Position Reports

Time Latitude Longitude Heading Altitude Ground
Speed
10-Jan-18 11:12 33.828783 -116.513717 269 480ft 0kts
10-Jan-18 11:13 33.828783 -116.513717 269 480ft 0kts
10-Jan-18 11:14 33.828783 -116.513717 269 480ft 0kts
10-Jan-18 11:15 33.828783 -116.513719 269 480ft 0kts
10-Jan-18 11:16 33.828783 -116.513722 269 480ft 0kts
10-Jan-18 11:17 33.828783 -116.513726 269 480ft 0kts
10-Jan-18 11:18 33.828783 -116.513729 269 480ft 0kts
10-Jan-18 11:19 33.828783 -116.513732 269 480ft 0kts
10-Jan-18 11:20 33.828657 -116.513641 86 480ft 6kts
10-Jan-18 11:21 33.828619 -116.508976 111 480ft 13kts
10-Jan-18 11:22 33.826043 -116.506429 138 480ft 10kts
10-Jan-18 11:23 33.823008 -116.503808 142 480ft 30kts
10-Jan-18 11:24 33.818167 -116.499573 113 480ft 0kts
10-Jan-18 11:25 33.818166 -116.499571 113 480ft 0kts
10-Jan-18 11:26 33.818166 -116.499570 113 480ft 0kts
10-Jan-18 11:27 33.818165 -116.499568 113 480ft 0kts
10-Jan-18 11:28 33.818465 -116.498835 60 480ft 0kts
10-Jan-18 11:29 33.818466 -116.498833 60 480ft 0kts
10-Jan-18 11:30 33.823929 -116.502530 324 480ft 76kts
10-Jan-18 11:31 33.842845 -116.518828 323 833ft 88kts
10-Jan-18 11:32 33.850494 -116.545871 294 1260ft 81kts
10-Jan-18 11:33 33.861639 -116.569168 301 1761ft 83kts
10-Jan-18 11:34 33.873859 -116.593098 301 2264ft 84kts
10-Jan-18 11:35 33.886293 -116.617439 301 2769ft 85kts
10-Jan-18 11:36 33.898813 -116.641950 301 3270ft 86kts
10-Jan-18 11:37 33.911278 -116.666457 301 3853ft 86kts
10-Jan-18 11:38 33.924230 -116.691803 301 4373ft 90kts
10-Jan-18 11:39 33.939643 -116.721689 301 4563ft 127kts
10-Jan-18 11:40 33.952363 -116.757016 278 5543ft 105kts
10-Jan-18 11:41 33.957700 -116.790973 281 6490ft 102kts
10-Jan-18 11:42 33.964727 -116.830853 282 6737ft 145kts
10-Jan-18 11:43 33.973818 -116.881969 281 6736ft 161kts
10-Jan-18 11:44 33.983160 -116.935321 281 6739ft 163kts
10-Jan-18 11:45 33.992478 -116.989038 281 6743ft 164kts
10-Jan-18 11:46 34.001793 -117.042981 281 6746ft 164kts
10-Jan-18 11:47 34.010895 -117.096046 281 6751ft 161kts
10-Jan-18 11:48 34.020086 -117.149491 281 6754ft 162kts
10-Jan-18 11:49 34.029538 -117.204428 281 6343ft 166kts
10-Jan-18 11:50 34.038750 -117.257615 281 5419ft 159kts
10-Jan-18 11:51 34.047219 -117.308162 281 4755ft 138kts
10-Jan-18 11:52 34.054325 -117.351542 281 4593ft 131kts
10-Jan-18 11:53 34.057010 -117.393534 268 4591ft 120kts
10-Jan-18 11:54 34.073454 -117.416890 2 4600ft 114kts
10-Jan-18 11:55 34.105389 -117.415045 3 4595ft 114kts
10-Jan-18 11:56 34.119773 -117.389933 91 4598ft 112kts
10-Jan-18 11:57 34.119254 -117.351438 90 4602ft 120kts
10-Jan-18 11:58 34.096832 -117.327164 191 4607ft 151kts
10-Jan-18 11:59 34.054511 -117.339107 193 4595ft 158kts
10-Jan-18 12:00 34.017453 -117.365933 222 4595ft 159kts
10-Jan-18 12:01 33.985194 -117.401708 230 4586ft 147kts
10-Jan-18 12:02 34.003143 -117.427583 343 4578ft 107kts
10-Jan-18 12:03 34.029052 -117.437250 343 4568ft 90kts
10-Jan-18 12:04 34.047703 -117.459330 299 3783ft 111kts
10-Jan-18 12:05 34.052218 -117.493670 272 2403ft 91kts
10-Jan-18 12:06 34.054251 -117.521290 277 1759ft 80kts
10-Jan-18 12:07 34.055157 -117.548893 273 1480ft 85kts
10-Jan-18 12:08 34.054947 -117.578735 270 1059ft 92kts
10-Jan-18 12:09 34.055193 -117.599286 73 947ft 2kts
10-Jan-18 12:10 34.056051 -117.599942 356 947ft 5kts
10-Jan-18 12:11 34.057543 -117.599964 2 947ft 0kts
10-Jan-18 12:12 34.059122 -117.600042 13 947ft 17kts

Navigation Log

Ident Type
1. KPSP Airport
2. DEWAY Fix
3. PETIS Fix
4. KONT Airport